Terminal Aerodrome Forecast
Issued by NWS

Home | Current Version | Previous Version | Text Only | Print | Product List | Glossary On
Versions: 1 2 3 4 5 6 7 8 9 10 11 12 13 14 15
000
FTUS43 KLSX 242105 AAA
TAFCPS
TAF AMD
KCPS 242105Z 2421/2518 24010KT P6SM VCTS SCT040CB
     FM250300 20008KT P6SM SCT050
     FM251500 26008KT P6SM SCT060=

USA.gov is the U.S. government's official web portal to all federal, state and local government web resources and services.